createdAt,value
2023-04-30T00:00:43.783Z,9.44
2023-04-30T00:02:15.764Z,9.44
2023-04-30T00:03:47.667Z,9.44
2023-04-30T00:05:19.518Z,9.44
2023-04-30T00:06:51.290Z,9.45
2023-04-30T00:08:23.192Z,9.44
2023-04-30T00:09:55.208Z,9.44
2023-04-30T00:11:27.189Z,9.45
2023-04-30T00:12:59.016Z,9.44
2023-04-30T00:14:31.003Z,9.43
2023-04-30T00:16:02.857Z,9.44
2023-04-30T00:17:34.660Z,9.41
2023-04-30T00:19:06.635Z,9.39
2023-04-30T00:20:38.470Z,9.37
2023-04-30T00:22:10.491Z,9.34
2023-04-30T00:23:42.347Z,9.31
2023-04-30T00:25:14.254Z,9.26
2023-04-30T00:26:46.238Z,9.22
2023-04-30T00:28:18.082Z,9.17
2023-04-30T00:29:49.869Z,9.12
2023-04-30T00:31:21.669Z,9.05
2023-04-30T00:32:53.557Z,8.98
2023-04-30T00:34:25.796Z,8.91
2023-04-30T00:35:57.626Z,8.82
2023-04-30T00:37:29.443Z,8.74
2023-04-30T00:39:01.236Z,8.66
2023-04-30T00:40:35.367Z,8.57
2023-04-30T00:42:07.225Z,8.49
2023-04-30T00:43:39.116Z,8.41
2023-04-30T00:45:12.056Z,8.32
2023-04-30T00:46:43.918Z,8.24
2023-04-30T00:48:16.503Z,8.15
2023-04-30T00:49:48.646Z,8.05
2023-04-30T00:51:21.000Z,7.97
2023-04-30T00:52:52.993Z,7.89
2023-04-30T00:54:25.652Z,7.80
2023-04-30T00:55:57.998Z,7.71
2023-04-30T00:57:31.039Z,7.64
2023-04-30T00:59:02.953Z,7.55
2023-04-30T01:00:35.059Z,7.47
2023-04-30T01:02:06.999Z,7.38
2023-04-30T01:03:39.588Z,7.31
2023-04-30T01:05:12.650Z,7.24
2023-04-30T01:06:44.647Z,7.16
2023-04-30T01:08:16.614Z,7.10
2023-04-30T01:09:48.811Z,7.04
2023-04-30T01:11:26.427Z,6.97
2023-04-30T01:13:17.336Z,6.90
2023-04-30T01:15:02.205Z,6.85
2023-04-30T01:16:40.710Z,6.81
2023-04-30T01:18:34.033Z,6.76
2023-04-30T01:20:09.926Z,6.71
2023-04-30T01:21:43.416Z,6.65
2023-04-30T01:23:43.917Z,6.57
2023-04-30T01:25:46.945Z,6.53
2023-04-30T01:27:42.336Z,6.46
2023-04-30T01:29:16.961Z,6.46
2023-04-30T01:30:49.377Z,6.41
2023-04-30T01:32:21.231Z,6.37
2023-04-30T01:33:53.060Z,6.33
2023-04-30T01:35:47.005Z,6.29
2023-04-30T01:37:36.692Z,6.21
2023-04-30T01:39:17.091Z,6.20
2023-04-30T01:40:58.134Z,6.15
2023-04-30T01:42:45.946Z,6.11
2023-04-30T01:44:55.348Z,6.04
2023-04-30T01:46:30.687Z,6.03
2023-04-30T01:48:17.205Z,5.97
2023-04-30T01:49:58.185Z,5.93
2023-04-30T01:51:41.462Z,5.88
2023-04-30T01:53:28.092Z,5.82
2023-04-30T01:55:08.270Z,5.81
2023-04-30T01:56:50.254Z,5.75
2023-04-30T01:58:24.958Z,5.71
2023-04-30T01:59:57.088Z,5.68
2023-04-30T02:01:31.642Z,5.66
2023-04-30T02:03:03.949Z,5.63
2023-04-30T02:04:36.602Z,5.60
2023-04-30T02:06:09.157Z,5.57
2023-04-30T02:07:45.007Z,5.52
2023-04-30T02:09:16.854Z,5.50
2023-04-30T02:10:48.665Z,5.46
2023-04-30T02:12:20.445Z,5.42
2023-04-30T02:13:52.260Z,5.39
2023-04-30T02:15:24.280Z,5.37
2023-04-30T02:16:56.109Z,5.32
2023-04-30T02:18:27.946Z,5.29
2023-04-30T02:20:00.390Z,5.25
2023-04-30T02:21:32.193Z,5.21
2023-04-30T02:23:04.032Z,5.17
2023-04-30T02:24:36.371Z,5.13
2023-04-30T02:26:08.718Z,5.11
2023-04-30T02:27:40.668Z,5.07
2023-04-30T02:29:12.559Z,5.04
2023-04-30T02:30:44.377Z,5.01
2023-04-30T02:32:16.421Z,5.00
2023-04-30T02:33:48.242Z,4.95
2023-04-30T02:35:20.009Z,4.93
2023-04-30T02:36:51.960Z,4.89
2023-04-30T02:38:23.786Z,4.87
2023-04-30T02:39:56.511Z,4.83
2023-04-30T02:41:30.759Z,4.80
2023-04-30T02:43:02.571Z,4.77
2023-04-30T02:44:34.859Z,4.76
2023-04-30T02:46:06.967Z,4.71
2023-04-30T02:47:38.876Z,4.68
2023-04-30T02:49:10.877Z,4.65
2023-04-30T02:50:42.764Z,4.63
2023-04-30T02:52:14.558Z,4.61
2023-04-30T02:53:46.422Z,4.57
2023-04-30T02:55:18.489Z,4.57
2023-04-30T02:56:50.432Z,4.56
2023-04-30T02:58:22.246Z,4.55
2023-04-30T02:59:55.272Z,4.54
2023-04-30T03:01:27.800Z,4.53
2023-04-30T03:02:59.824Z,4.51
2023-04-30T03:04:32.736Z,4.52
2023-04-30T03:06:05.464Z,4.50
2023-04-30T03:07:37.378Z,4.50
2023-04-30T03:09:09.441Z,4.48
2023-04-30T03:10:41.375Z,4.46
2023-04-30T03:12:14.773Z,4.45
2023-04-30T03:13:46.722Z,4.44
2023-04-30T03:15:18.592Z,4.41
2023-04-30T03:16:50.759Z,4.38
2023-04-30T03:18:22.533Z,4.35
2023-04-30T03:19:54.488Z,4.33
2023-04-30T03:21:26.543Z,4.32
2023-04-30T03:22:58.325Z,4.28
2023-04-30T03:24:31.007Z,4.26
2023-04-30T03:26:02.908Z,4.23
2023-04-30T03:27:34.826Z,4.22
2023-04-30T03:29:06.637Z,4.21
2023-04-30T03:30:38.523Z,4.18
2023-04-30T03:32:10.735Z,4.18
2023-04-30T03:33:42.668Z,4.16
2023-04-30T03:35:14.618Z,4.14
2023-04-30T03:36:46.500Z,4.13
2023-04-30T03:38:18.357Z,4.12
2023-04-30T03:39:50.147Z,4.14
2023-04-30T03:41:24.420Z,4.15
2023-04-30T03:42:56.385Z,4.17
2023-04-30T03:44:28.389Z,4.20
2023-04-30T03:46:00.346Z,4.22
2023-04-30T03:47:33.440Z,4.26
2023-04-30T03:49:05.256Z,4.28
2023-04-30T03:50:37.085Z,4.31
2023-04-30T03:52:08.917Z,4.34
2023-04-30T03:53:40.825Z,4.38
2023-04-30T03:55:14.244Z,4.42
2023-04-30T03:56:46.169Z,4.46
2023-04-30T03:58:18.164Z,4.48
2023-04-30T03:59:50.875Z,4.49
2023-04-30T04:01:23.113Z,4.51
2023-04-30T04:02:55.419Z,4.52
2023-04-30T04:04:27.350Z,4.53
2023-04-30T04:05:59.224Z,4.53
2023-04-30T04:07:31.248Z,4.54
2023-04-30T04:09:04.592Z,4.54
2023-04-30T04:10:36.467Z,4.53
2023-04-30T04:12:08.355Z,4.54
2023-04-30T04:13:41.331Z,4.53
2023-04-30T04:15:13.538Z,4.52
2023-04-30T04:16:45.800Z,4.52
2023-04-30T04:18:17.661Z,4.51
2023-04-30T04:19:49.657Z,4.50
2023-04-30T04:21:23.074Z,4.49
2023-04-30T04:22:54.906Z,4.48
2023-04-30T04:24:27.004Z,4.48
2023-04-30T04:25:58.894Z,4.47
2023-04-30T04:27:30.743Z,4.45
2023-04-30T04:29:04.458Z,4.45
2023-04-30T04:30:36.961Z,4.43
2023-04-30T04:32:10.546Z,4.43
2023-04-30T04:33:44.171Z,4.40
2023-04-30T04:35:17.174Z,4.39
2023-04-30T04:36:49.440Z,4.37
2023-04-30T04:38:21.579Z,4.38
2023-04-30T04:39:53.837Z,4.36
2023-04-30T04:41:26.859Z,4.35
2023-04-30T04:42:58.747Z,4.34
2023-04-30T04:44:30.634Z,4.34
2023-04-30T04:46:02.467Z,4.33
2023-04-30T04:47:34.442Z,4.32
2023-04-30T04:49:06.768Z,4.33
2023-04-30T04:50:38.666Z,4.32
2023-04-30T04:52:10.568Z,4.32
2023-04-30T04:53:42.374Z,4.34
2023-04-30T04:55:15.896Z,4.33
2023-04-30T04:56:47.922Z,4.33
2023-04-30T04:58:20.979Z,4.36
2023-04-30T04:59:53.281Z,4.36
2023-04-30T05:01:25.302Z,4.40
2023-04-30T05:02:57.480Z,4.41
2023-04-30T05:04:30.661Z,4.42
2023-04-30T05:06:03.097Z,4.44
2023-04-30T05:07:35.384Z,4.46
2023-04-30T05:09:09.587Z,4.48
2023-04-30T05:10:41.402Z,4.51
2023-04-30T05:12:14.321Z,4.56
2023-04-30T05:13:46.123Z,4.59
2023-04-30T05:15:18.021Z,4.64
2023-04-30T05:16:50.040Z,4.66
2023-04-30T05:18:21.845Z,4.74
2023-04-30T05:19:53.906Z,4.81
2023-04-30T05:21:29.788Z,4.96
2023-04-30T05:23:01.721Z,5.14
2023-04-30T05:24:34.342Z,5.38
2023-04-30T05:26:06.190Z,5.66
2023-04-30T05:27:38.797Z,5.97
2023-04-30T05:29:12.336Z,6.29
2023-04-30T05:30:44.129Z,6.65
2023-04-30T05:32:16.192Z,7.02
2023-04-30T05:33:48.619Z,7.38
2023-04-30T05:35:20.418Z,7.75
2023-04-30T05:36:52.288Z,8.11
2023-04-30T05:38:24.135Z,8.47
2023-04-30T05:39:56.411Z,8.87
2023-04-30T05:41:28.401Z,9.23
2023-04-30T05:43:00.189Z,9.58
2023-04-30T05:44:32.075Z,9.91
2023-04-30T05:46:04.314Z,10.23
2023-04-30T05:47:36.187Z,10.54
2023-04-30T05:49:08.002Z,10.83
2023-04-30T05:50:39.890Z,11.10
2023-04-30T05:52:12.173Z,11.36
2023-04-30T05:53:43.968Z,11.63
2023-04-30T05:55:16.039Z,11.86
2023-04-30T05:56:48.011Z,12.04
2023-04-30T05:58:19.800Z,12.19
2023-04-30T05:59:51.621Z,12.32
2023-04-30T06:01:23.926Z,12.41
2023-04-30T06:02:55.804Z,12.51
2023-04-30T06:04:27.674Z,12.60
2023-04-30T06:05:59.533Z,12.71
2023-04-30T06:07:31.390Z,12.83
2023-04-30T06:09:03.621Z,12.95
2023-04-30T06:10:35.778Z,13.04
2023-04-30T06:12:07.557Z,13.15
2023-04-30T06:13:39.874Z,13.26
2023-04-30T06:15:11.760Z,13.38
2023-04-30T06:16:45.243Z,13.49
2023-04-30T06:18:17.159Z,13.58
2023-04-30T06:19:49.021Z,13.71
2023-04-30T06:21:21.168Z,13.82
2023-04-30T06:22:53.273Z,13.96
2023-04-30T06:24:27.704Z,14.09
2023-04-30T06:25:59.592Z,14.22
2023-04-30T06:27:32.608Z,14.34
2023-04-30T06:29:05.236Z,14.43
2023-04-30T06:30:37.528Z,14.50
2023-04-30T06:32:09.329Z,14.53
2023-04-30T06:33:41.192Z,14.59
2023-04-30T06:35:13.049Z,14.61
2023-04-30T06:36:44.845Z,14.60
2023-04-30T06:38:18.310Z,14.58
2023-04-30T06:39:50.399Z,14.51
2023-04-30T06:41:22.655Z,14.45
2023-04-30T06:42:54.765Z,14.34
2023-04-30T06:44:26.873Z,14.21
2023-04-30T06:45:58.830Z,14.06
2023-04-30T06:47:38.503Z,13.90
2023-04-30T06:49:10.409Z,13.75
2023-04-30T06:50:45.280Z,13.62
2023-04-30T06:52:17.090Z,13.50
2023-04-30T06:53:48.878Z,13.39
2023-04-30T06:55:20.963Z,13.29
2023-04-30T06:56:52.959Z,13.19
2023-04-30T06:58:24.942Z,13.10
2023-04-30T06:59:57.332Z,13.00
2023-04-30T07:01:29.300Z,12.93
2023-04-30T07:03:02.902Z,12.86
2023-04-30T07:04:34.780Z,12.74
2023-04-30T07:06:06.728Z,12.64
2023-04-30T07:07:38.740Z,12.58
2023-04-30T07:09:11.177Z,12.56
2023-04-30T07:10:43.095Z,12.56
2023-04-30T07:12:14.945Z,12.62
2023-04-30T07:13:46.784Z,12.68
2023-04-30T07:15:18.689Z,12.81
2023-04-30T07:16:51.107Z,12.94
2023-04-30T07:18:22.963Z,13.10
2023-04-30T07:19:55.131Z,13.25
2023-04-30T07:21:27.774Z,13.45
2023-04-30T07:22:59.610Z,13.65
2023-04-30T07:24:31.415Z,13.83
2023-04-30T07:26:03.251Z,14.03
2023-04-30T07:27:35.106Z,14.24
2023-04-30T07:29:06.922Z,14.44
2023-04-30T07:30:38.753Z,14.65
2023-04-30T07:32:11.133Z,14.84
2023-04-30T07:33:42.927Z,15.01
2023-04-30T07:35:15.001Z,15.16
2023-04-30T07:36:48.637Z,15.27
2023-04-30T07:38:20.484Z,15.35
2023-04-30T07:39:52.549Z,15.41
2023-04-30T07:41:26.106Z,15.52
2023-04-30T07:42:57.884Z,15.65
2023-04-30T07:44:30.156Z,15.78
2023-04-30T07:46:02.629Z,15.94
2023-04-30T07:47:34.625Z,16.06
2023-04-30T07:49:06.447Z,16.13
2023-04-30T07:50:38.323Z,16.14
2023-04-30T07:52:11.316Z,16.13
2023-04-30T07:53:43.132Z,16.10
2023-04-30T07:55:14.986Z,16.10
2023-04-30T07:56:49.015Z,16.12
2023-04-30T07:58:20.836Z,16.12
2023-04-30T07:59:54.346Z,16.15
2023-04-30T08:01:26.497Z,16.13
2023-04-30T08:03:00.854Z,16.10
2023-04-30T08:04:32.995Z,16.04
2023-04-30T08:06:06.156Z,16.01
2023-04-30T08:07:38.049Z,15.98
2023-04-30T08:09:09.868Z,15.99
2023-04-30T08:10:42.139Z,16.04
2023-04-30T08:12:13.937Z,16.12
2023-04-30T08:13:46.792Z,16.20
2023-04-30T08:15:21.955Z,16.33
2023-04-30T08:16:53.841Z,16.43
2023-04-30T08:18:25.770Z,16.57
2023-04-30T08:19:57.546Z,16.73
2023-04-30T08:21:29.365Z,16.88
2023-04-30T08:23:01.156Z,17.00
2023-04-30T08:24:32.946Z,17.09
2023-04-30T08:26:04.968Z,17.14
2023-04-30T08:27:36.810Z,17.15
2023-04-30T08:29:08.627Z,17.10
2023-04-30T08:30:40.469Z,17.02
2023-04-30T08:32:12.456Z,16.88
2023-04-30T08:33:44.398Z,16.79
2023-04-30T08:35:17.247Z,16.71
2023-04-30T08:36:49.099Z,16.66
2023-04-30T08:38:21.084Z,16.65
2023-04-30T08:39:53.096Z,16.68
2023-04-30T08:41:27.166Z,16.69
2023-04-30T08:43:07.871Z,16.69
2023-04-30T08:44:42.460Z,16.67
2023-04-30T08:46:15.493Z,16.62
2023-04-30T08:47:49.027Z,16.55
2023-04-30T08:49:25.317Z,16.46
2023-04-30T08:51:01.289Z,16.44
2023-04-30T08:52:35.547Z,16.42
2023-04-30T08:54:12.779Z,16.41
2023-04-30T08:55:45.224Z,16.44
2023-04-30T08:57:17.084Z,16.52
2023-04-30T08:58:48.864Z,16.59
2023-04-30T09:00:20.829Z,16.64
2023-04-30T09:01:53.965Z,16.72
2023-04-30T09:03:26.496Z,16.74
2023-04-30T09:04:58.408Z,16.73
2023-04-30T09:06:31.658Z,16.72
2023-04-30T09:08:04.518Z,16.65
2023-04-30T09:09:39.877Z,16.60
2023-04-30T09:11:27.852Z,16.48
2023-04-30T09:13:01.464Z,16.44
2023-04-30T09:14:35.344Z,16.39
2023-04-30T09:16:07.325Z,16.39
2023-04-30T09:17:39.520Z,16.36
2023-04-30T09:19:29.511Z,16.34
2023-04-30T09:21:03.141Z,16.41
2023-04-30T09:22:37.037Z,16.42
2023-04-30T09:24:08.820Z,16.43
2023-04-30T09:25:41.927Z,16.43
2023-04-30T09:27:22.385Z,16.41
2023-04-30T09:28:57.142Z,16.41
2023-04-30T09:30:34.940Z,16.36
2023-04-30T09:32:09.146Z,16.28
2023-04-30T09:33:46.808Z,16.17
2023-04-30T09:35:32.919Z,16.03
2023-04-30T09:37:04.821Z,15.98
2023-04-30T09:38:36.737Z,15.93
2023-04-30T09:40:09.324Z,15.93
2023-04-30T09:41:42.451Z,15.91
2023-04-30T09:43:14.256Z,15.90
2023-04-30T09:44:47.040Z,15.89
2023-04-30T09:46:20.668Z,15.86
2023-04-30T09:47:55.635Z,15.80
2023-04-30T09:49:32.247Z,15.76
2023-04-30T09:51:04.221Z,15.75
2023-04-30T09:52:38.561Z,15.76
2023-04-30T09:54:11.861Z,15.81
2023-04-30T09:55:46.041Z,15.86
2023-04-30T09:57:21.101Z,15.93
2023-04-30T09:58:55.692Z,15.98
2023-04-30T10:00:27.554Z,16.01
2023-04-30T10:02:01.504Z,16.00
2023-04-30T10:03:34.147Z,15.95
2023-04-30T10:05:06.720Z,15.90
2023-04-30T10:06:39.645Z,15.86
2023-04-30T10:08:36.531Z,15.82
2023-04-30T10:10:11.027Z,15.81
2023-04-30T10:11:46.994Z,15.80
2023-04-30T10:13:20.950Z,15.83
2023-04-30T10:14:59.853Z,15.88
2023-04-30T10:16:53.208Z,15.94
2023-04-30T10:18:36.548Z,16.05
2023-04-30T10:20:09.675Z,16.11
2023-04-30T10:21:45.562Z,16.27
2023-04-30T10:23:17.538Z,16.33
2023-04-30T10:24:50.712Z,16.43
2023-04-30T10:26:23.757Z,16.52
2023-04-30T10:27:56.019Z,16.58
2023-04-30T10:29:27.793Z,16.65
2023-04-30T10:30:59.696Z,16.65
2023-04-30T10:32:38.127Z,16.62
2023-04-30T10:34:22.195Z,16.52
2023-04-30T10:36:02.183Z,16.44
2023-04-30T10:37:50.663Z,16.33
2023-04-30T10:39:24.095Z,16.27
2023-04-30T10:41:01.512Z,16.20
2023-04-30T10:42:35.870Z,16.20
2023-04-30T10:44:08.115Z,16.21
2023-04-30T10:45:47.384Z,16.21
2023-04-30T10:47:19.522Z,16.24
2023-04-30T10:48:54.411Z,16.25
2023-04-30T10:50:26.244Z,16.26
2023-04-30T10:52:05.291Z,16.28
2023-04-30T10:53:40.365Z,16.31
2023-04-30T10:55:17.359Z,16.36
2023-04-30T10:56:51.639Z,16.45
2023-04-30T10:58:30.052Z,16.53
2023-04-30T11:00:07.762Z,16.62
2023-04-30T11:01:58.387Z,16.69
2023-04-30T11:03:31.302Z,16.83
2023-04-30T11:05:16.022Z,16.91
2023-04-30T11:06:56.728Z,16.98
2023-04-30T11:08:40.296Z,17.06
2023-04-30T11:10:14.814Z,17.12
2023-04-30T11:11:47.729Z,17.20
2023-04-30T11:13:19.914Z,17.29
2023-04-30T11:14:51.826Z,17.40
2023-04-30T11:16:34.557Z,17.51
2023-04-30T11:18:08.001Z,17.67
2023-04-30T11:19:47.939Z,17.79
2023-04-30T11:21:21.450Z,17.95
2023-04-30T11:23:39.457Z,18.09
2023-04-30T11:25:13.570Z,18.24
2023-04-30T11:27:06.502Z,18.28
2023-04-30T11:28:38.781Z,18.32
2023-04-30T11:30:18.334Z,18.27
2023-04-30T11:31:50.436Z,18.21
2023-04-30T11:33:23.959Z,18.19
2023-04-30T11:34:56.243Z,18.14
2023-04-30T11:36:31.038Z,18.10
2023-04-30T11:38:04.315Z,18.07
2023-04-30T11:39:37.620Z,18.03
2023-04-30T11:41:12.980Z,18.01
2023-04-30T11:42:46.457Z,17.98
2023-04-30T11:44:28.016Z,17.97
2023-04-30T11:46:13.499Z,17.90
2023-04-30T11:47:48.112Z,17.91
2023-04-30T11:49:22.700Z,17.85
2023-04-30T11:50:54.484Z,17.81
2023-04-30T11:52:27.161Z,17.77
2023-04-30T11:53:58.972Z,17.71
2023-04-30T11:55:30.799Z,17.68
2023-04-30T11:57:04.545Z,17.66
2023-04-30T11:58:38.831Z,17.63
2023-04-30T12:00:13.258Z,17.62
2023-04-30T12:01:45.282Z,17.62
2023-04-30T12:03:17.662Z,17.64
2023-04-30T12:04:49.613Z,17.70
2023-04-30T12:06:23.615Z,17.69
2023-04-30T12:07:58.240Z,17.72
2023-04-30T12:09:30.335Z,17.71
2023-04-30T12:11:02.163Z,17.74
2023-04-30T12:12:37.340Z,17.77
2023-04-30T12:14:12.770Z,17.78
2023-04-30T12:15:58.261Z,17.77
2023-04-30T12:17:36.615Z,17.78
2023-04-30T12:19:09.799Z,17.80
2023-04-30T12:20:42.292Z,17.80
2023-04-30T12:22:14.366Z,17.77
2023-04-30T12:23:46.183Z,17.77
2023-04-30T12:25:19.770Z,17.78
2023-04-30T12:26:53.985Z,17.77
2023-04-30T12:28:25.843Z,17.78
2023-04-30T12:29:57.694Z,17.80
2023-04-30T12:31:32.110Z,17.80
2023-04-30T12:33:04.104Z,17.79
2023-04-30T12:34:38.610Z,17.79
2023-04-30T12:36:11.556Z,17.82
2023-04-30T12:37:45.274Z,17.84
2023-04-30T12:39:17.091Z,17.82
2023-04-30T12:40:49.306Z,17.84
2023-04-30T12:42:21.436Z,17.86
2023-04-30T12:44:15.897Z,17.83
2023-04-30T12:45:54.766Z,17.84
2023-04-30T12:47:26.649Z,17.80
2023-04-30T12:49:00.191Z,17.77
2023-04-30T12:50:32.045Z,17.74
2023-04-30T12:52:08.990Z,17.73
2023-04-30T12:53:47.281Z,17.72
2023-04-30T12:55:21.218Z,17.74
2023-04-30T12:57:06.760Z,17.71
2023-04-30T12:58:40.024Z,17.72
2023-04-30T13:00:12.566Z,17.73
2023-04-30T13:01:45.826Z,17.75
2023-04-30T13:03:21.109Z,17.78
2023-04-30T13:04:53.878Z,17.80
2023-04-30T13:06:25.772Z,17.82
2023-04-30T13:08:02.472Z,17.83
2023-04-30T13:09:35.411Z,17.86
2023-04-30T13:11:08.532Z,17.87
2023-04-30T13:12:41.218Z,17.92
2023-04-30T13:14:13.289Z,17.95
2023-04-30T13:15:45.229Z,17.98
2023-04-30T13:17:17.278Z,18.00
2023-04-30T13:18:49.052Z,18.05
2023-04-30T13:20:20.938Z,18.13
2023-04-30T13:21:52.940Z,18.20
2023-04-30T13:23:24.877Z,18.24
2023-04-30T13:24:56.892Z,18.26
2023-04-30T13:26:28.970Z,18.33
2023-04-30T13:28:00.827Z,18.40
2023-04-30T13:29:32.981Z,18.44
2023-04-30T13:31:04.870Z,18.48
2023-04-30T13:32:37.472Z,18.53
2023-04-30T13:34:09.993Z,18.57
2023-04-30T13:35:42.152Z,18.58
2023-04-30T13:37:14.042Z,18.59
2023-04-30T13:38:45.849Z,18.60
2023-04-30T13:40:17.911Z,18.61
2023-04-30T13:41:49.856Z,18.62
2023-04-30T13:43:21.640Z,18.63
2023-04-30T13:44:53.452Z,18.65
2023-04-30T13:46:25.321Z,18.71
2023-04-30T13:47:57.685Z,18.76
2023-04-30T13:49:29.563Z,18.85
2023-04-30T13:51:01.413Z,18.94
2023-04-30T13:52:33.211Z,19.05
2023-04-30T13:54:05.030Z,19.18
2023-04-30T13:55:36.851Z,19.31
2023-04-30T13:57:08.682Z,19.41
2023-04-30T13:58:40.647Z,19.54
2023-04-30T14:00:13.144Z,19.64
2023-04-30T14:01:45.052Z,19.75
2023-04-30T14:03:17.646Z,19.89
2023-04-30T14:05:02.061Z,20.01
2023-04-30T14:06:38.888Z,20.13
2023-04-30T14:08:10.992Z,20.23
2023-04-30T14:09:42.787Z,20.33
2023-04-30T14:11:14.770Z,20.42
2023-04-30T14:12:47.016Z,20.47
2023-04-30T14:14:18.826Z,20.53
2023-04-30T14:15:50.632Z,20.56
2023-04-30T14:17:22.546Z,20.62
2023-04-30T14:18:54.651Z,20.68
2023-04-30T14:20:26.902Z,20.73
2023-04-30T14:21:58.745Z,20.79
2023-04-30T14:23:30.621Z,20.86
2023-04-30T14:25:02.422Z,20.95
2023-04-30T14:26:34.310Z,21.02
2023-04-30T14:28:06.095Z,21.07
2023-04-30T14:29:37.952Z,21.17
2023-04-30T14:31:10.782Z,21.26
2023-04-30T14:32:42.620Z,21.37
2023-04-30T14:34:14.583Z,21.44
2023-04-30T14:35:47.613Z,21.50
2023-04-30T14:37:20.120Z,21.53
2023-04-30T14:38:51.918Z,21.55
2023-04-30T14:40:23.752Z,21.57
2023-04-30T14:41:55.564Z,21.54
2023-04-30T14:43:27.425Z,21.53
2023-04-30T14:44:59.222Z,21.49
2023-04-30T14:46:31.528Z,21.46
2023-04-30T14:48:05.650Z,21.42
2023-04-30T14:49:38.128Z,21.42
2023-04-30T14:51:10.042Z,21.43
2023-04-30T14:52:42.371Z,21.45
2023-04-30T14:54:14.248Z,21.50
2023-04-30T14:55:46.084Z,21.56
2023-04-30T14:57:18.760Z,21.64
2023-04-30T14:58:50.878Z,21.75
2023-04-30T15:00:22.794Z,21.86
2023-04-30T15:01:54.679Z,21.96
2023-04-30T15:03:26.715Z,22.07
2023-04-30T15:04:58.603Z,22.17
2023-04-30T15:06:31.226Z,22.23
2023-04-30T15:08:03.381Z,22.33
2023-04-30T15:09:35.199Z,22.40
2023-04-30T15:11:10.477Z,22.49
2023-04-30T15:12:42.373Z,22.57
2023-04-30T15:14:14.313Z,22.66
2023-04-30T15:15:47.316Z,22.75
2023-04-30T15:17:19.433Z,22.82
2023-04-30T15:18:51.308Z,22.85
2023-04-30T15:20:23.235Z,22.88
2023-04-30T15:21:55.025Z,22.87
2023-04-30T15:23:27.128Z,22.86
2023-04-30T15:24:59.390Z,22.86
2023-04-30T15:26:31.487Z,22.82
2023-04-30T15:28:03.551Z,22.82
2023-04-30T15:29:35.547Z,22.83
2023-04-30T15:31:07.451Z,22.82
2023-04-30T15:32:39.461Z,22.90
2023-04-30T15:34:11.306Z,22.90
2023-04-30T15:35:43.302Z,22.88
2023-04-30T15:37:15.152Z,22.85
2023-04-30T15:38:47.016Z,22.84
2023-04-30T15:40:18.910Z,22.87
2023-04-30T15:41:50.801Z,22.88
2023-04-30T15:43:22.597Z,22.88
2023-04-30T15:44:54.388Z,22.86
2023-04-30T15:46:26.410Z,22.82
2023-04-30T15:47:58.296Z,22.80
2023-04-30T15:49:30.177Z,22.77
2023-04-30T15:51:02.101Z,22.76
2023-04-30T15:52:34.318Z,22.77
2023-04-30T15:54:11.211Z,22.73
2023-04-30T15:55:43.465Z,22.73
2023-04-30T15:57:15.337Z,22.70
2023-04-30T15:58:47.098Z,22.68
2023-04-30T16:00:18.916Z,22.67
2023-04-30T16:01:50.825Z,22.66
2023-04-30T16:03:22.782Z,22.65
2023-04-30T16:04:54.699Z,22.61
2023-04-30T16:06:29.083Z,22.55
2023-04-30T16:08:01.231Z,22.48
2023-04-30T16:09:33.529Z,22.41
2023-04-30T16:11:05.335Z,22.35
2023-04-30T16:12:37.685Z,22.27
2023-04-30T16:14:09.552Z,22.19
2023-04-30T16:15:41.637Z,22.07
2023-04-30T16:17:13.565Z,21.97
2023-04-30T16:18:45.496Z,21.81
2023-04-30T16:20:17.802Z,21.67
2023-04-30T16:21:49.640Z,21.54
2023-04-30T16:23:21.422Z,21.44
2023-04-30T16:24:53.972Z,21.33
2023-04-30T16:26:25.787Z,21.24
2023-04-30T16:27:57.841Z,21.14
2023-04-30T16:29:29.984Z,21.06
2023-04-30T16:31:01.948Z,20.97
2023-04-30T16:32:33.933Z,20.88
2023-04-30T16:34:06.150Z,20.81
2023-04-30T16:35:38.018Z,20.72
2023-04-30T16:37:09.885Z,20.64
2023-04-30T16:38:41.999Z,20.55
2023-04-30T16:40:14.045Z,20.49
2023-04-30T16:41:47.043Z,20.37
2023-04-30T16:43:18.878Z,20.30
2023-04-30T16:44:50.707Z,20.14
2023-04-30T16:46:22.984Z,19.99
2023-04-30T16:47:54.819Z,19.81
2023-04-30T16:49:26.629Z,19.64
2023-04-30T16:50:58.531Z,19.41
2023-04-30T16:52:31.114Z,19.14
2023-04-30T16:54:02.992Z,18.87
2023-04-30T16:55:34.830Z,18.60
2023-04-30T16:57:07.417Z,18.29
2023-04-30T16:58:39.531Z,18.00
2023-04-30T17:00:14.301Z,17.73
2023-04-30T17:01:46.484Z,17.47
2023-04-30T17:03:18.408Z,17.22
2023-04-30T17:04:50.255Z,16.99
2023-04-30T17:06:22.840Z,16.77
2023-04-30T17:07:54.846Z,16.56
2023-04-30T17:09:26.660Z,16.36
2023-04-30T17:10:58.479Z,16.19
2023-04-30T17:12:30.394Z,16.03
2023-04-30T17:14:02.257Z,15.88
2023-04-30T17:15:34.131Z,15.73
2023-04-30T17:17:06.773Z,15.60
2023-04-30T17:18:38.597Z,15.44
2023-04-30T17:20:10.883Z,15.31
2023-04-30T17:21:42.798Z,15.18
2023-04-30T17:23:14.621Z,15.02
2023-04-30T17:24:47.083Z,14.91
2023-04-30T17:26:18.905Z,14.80
2023-04-30T17:27:50.741Z,14.68
2023-04-30T17:29:23.765Z,14.56
2023-04-30T17:30:55.731Z,14.45
2023-04-30T17:32:28.097Z,14.35
2023-04-30T17:34:00.396Z,14.24
2023-04-30T17:35:32.272Z,14.14
2023-04-30T17:37:04.338Z,14.06
2023-04-30T17:38:36.123Z,13.95
2023-04-30T17:40:08.561Z,13.86
2023-04-30T17:41:42.045Z,13.77
2023-04-30T17:43:14.076Z,13.68
2023-04-30T17:44:45.870Z,13.59
2023-04-30T17:46:17.847Z,13.51
2023-04-30T17:47:49.710Z,13.43
2023-04-30T17:49:21.539Z,13.34
2023-04-30T17:50:53.427Z,13.26
2023-04-30T17:52:26.326Z,13.17
2023-04-30T17:53:59.814Z,13.08
2023-04-30T17:55:31.601Z,13.01
2023-04-30T17:57:03.610Z,12.92
2023-04-30T17:58:36.168Z,12.84
2023-04-30T18:00:10.010Z,12.74
2023-04-30T18:01:47.767Z,12.65
2023-04-30T18:03:19.692Z,12.55
2023-04-30T18:04:51.894Z,12.46
2023-04-30T18:06:23.738Z,12.36
2023-04-30T18:07:55.844Z,12.25
2023-04-30T18:09:27.662Z,12.14
2023-04-30T18:10:59.543Z,12.03
2023-04-30T18:12:31.384Z,11.95
2023-04-30T18:14:05.364Z,11.84
2023-04-30T18:15:37.943Z,11.72
2023-04-30T18:17:09.754Z,11.62
2023-04-30T18:18:41.640Z,11.51
2023-04-30T18:20:13.425Z,11.39
2023-04-30T18:21:45.597Z,11.26
2023-04-30T18:23:17.450Z,11.14
2023-04-30T18:24:49.292Z,11.03
2023-04-30T18:26:21.968Z,10.91
2023-04-30T18:27:53.766Z,10.78
2023-04-30T18:29:26.189Z,10.68
2023-04-30T18:30:58.168Z,10.57
2023-04-30T18:32:30.034Z,10.47
2023-04-30T18:34:01.863Z,10.37
2023-04-30T18:35:34.473Z,10.27
2023-04-30T18:37:06.336Z,10.16
2023-04-30T18:38:39.090Z,10.06
2023-04-30T18:40:11.145Z,9.98
2023-04-30T18:41:43.518Z,9.89
2023-04-30T18:43:16.971Z,9.79
2023-04-30T18:44:48.934Z,9.70
2023-04-30T18:46:20.910Z,9.61
2023-04-30T18:47:52.976Z,9.53
2023-04-30T18:49:24.861Z,9.44
2023-04-30T18:50:57.448Z,9.37
2023-04-30T18:52:29.265Z,9.29
2023-04-30T18:54:01.625Z,9.20
2023-04-30T18:55:33.555Z,9.14
2023-04-30T18:57:06.070Z,9.06
2023-04-30T18:58:37.864Z,9.01
2023-04-30T19:00:12.442Z,8.94
2023-04-30T19:01:45.904Z,8.91
2023-04-30T19:03:17.798Z,8.83
2023-04-30T19:04:50.580Z,8.77
2023-04-30T19:06:22.669Z,8.72
2023-04-30T19:07:54.764Z,8.65
2023-04-30T19:09:26.524Z,8.61
2023-04-30T19:10:58.352Z,8.52
2023-04-30T19:12:31.122Z,8.44
2023-04-30T19:14:03.074Z,8.40
2023-04-30T19:15:35.837Z,8.31
2023-04-30T19:17:07.713Z,8.22
2023-04-30T19:18:39.943Z,8.15
2023-04-30T19:20:12.667Z,8.07
2023-04-30T19:21:44.493Z,7.99
2023-04-30T19:23:16.274Z,7.93
2023-04-30T19:24:48.097Z,7.85
2023-04-30T19:26:20.318Z,7.78
2023-04-30T19:27:52.078Z,7.73
2023-04-30T19:29:24.778Z,7.66
2023-04-30T19:30:56.881Z,7.61
2023-04-30T19:32:28.934Z,7.55
2023-04-30T19:34:03.954Z,7.49
2023-04-30T19:35:36.037Z,7.44
2023-04-30T19:37:07.807Z,7.40
2023-04-30T19:38:39.599Z,7.35
2023-04-30T19:40:12.200Z,7.32
2023-04-30T19:41:44.055Z,7.28
2023-04-30T19:43:16.410Z,7.25
2023-04-30T19:44:51.240Z,7.20
2023-04-30T19:46:23.261Z,7.16
2023-04-30T19:47:55.466Z,7.12
2023-04-30T19:49:27.409Z,7.10
2023-04-30T19:50:59.321Z,7.07
2023-04-30T19:52:31.309Z,7.02
2023-04-30T19:54:03.963Z,6.99
2023-04-30T19:55:35.799Z,6.96
2023-04-30T19:57:07.897Z,6.92
2023-04-30T19:58:39.740Z,6.86
2023-04-30T20:00:13.870Z,6.81
2023-04-30T20:01:45.918Z,6.77
2023-04-30T20:03:19.906Z,6.72
2023-04-30T20:04:51.777Z,6.65
2023-04-30T20:06:23.634Z,6.60
2023-04-30T20:07:55.542Z,6.53
2023-04-30T20:09:27.383Z,6.48
2023-04-30T20:11:00.798Z,6.43
2023-04-30T20:12:33.788Z,6.40
2023-04-30T20:14:05.721Z,6.35
2023-04-30T20:15:37.545Z,6.30
2023-04-30T20:17:09.428Z,6.27